sensor_id;sensor_type;location;lat;lon;timestamp;pressure;altitude;pressure_sealevel;temperature;humidity
8637;BME280;4356;49.068;8.658;2023-03-01T00:00:40;100798.34;;;16.83;28.63
8637;BME280;4356;49.068;8.658;2023-03-01T00:03:06;100797.53;;;16.83;28.48
8637;BME280;4356;49.068;8.658;2023-03-01T00:05:32;100806.50;;;16.83;28.34
8637;BME280;4356;49.068;8.658;2023-03-01T00:07:58;100792.19;;;16.75;28.63
8637;BME280;4356;49.068;8.658;2023-03-01T00:10:23;100802.66;;;16.78;28.41
8637;BME280;4356;49.068;8.658;2023-03-01T00:12:49;100793.69;;;16.77;28.48
8637;BME280;4356;49.068;8.658;2023-03-01T00:15:14;100791.78;;;16.78;28.45
8637;BME280;4356;49.068;8.658;2023-03-01T00:17:40;100789.47;;;16.75;28.58
8637;BME280;4356;49.068;8.658;2023-03-01T00:20:06;100793.88;;;16.76;28.69
8637;BME280;4356;49.068;8.658;2023-03-01T00:22:36;100777.41;;;16.63;28.51
8637;BME280;4356;49.068;8.658;2023-03-01T00:25:02;100769.00;;;16.58;28.75
8637;BME280;4356;49.068;8.658;2023-03-01T00:27:28;100787.34;;;16.70;28.63
8637;BME280;4356;49.068;8.658;2023-03-01T00:29:54;100784.63;;;16.70;28.45
8637;BME280;4356;49.068;8.658;2023-03-01T00:32:19;100777.22;;;16.64;28.60
8637;BME280;4356;49.068;8.658;2023-03-01T00:34:45;100790.59;;;16.66;28.56
8637;BME280;4356;49.068;8.658;2023-03-01T00:37:23;100786.22;;;16.65;28.42
8637;BME280;4356;49.068;8.658;2023-03-01T00:39:49;100795.19;;;16.65;28.61
8637;BME280;4356;49.068;8.658;2023-03-01T00:42:16;100746.63;;;16.41;28.80
8637;BME280;4356;49.068;8.658;2023-03-01T00:44:42;100783.03;;;16.61;28.60
8637;BME280;4356;49.068;8.658;2023-03-01T00:47:08;100787.81;;;16.59;28.43
8637;BME280;4356;49.068;8.658;2023-03-01T00:49:34;100790.06;;;16.56;28.68
8637;BME280;4356;49.068;8.658;2023-03-01T00:52:00;100776.75;;;16.46;28.72
8637;BME280;4356;49.068;8.658;2023-03-01T00:54:25;100770.19;;;16.40;28.59
8637;BME280;4356;49.068;8.658;2023-03-01T00:56:51;100788.94;;;16.50;28.60
8637;BME280;4356;49.068;8.658;2023-03-01T00:59:16;100792.00;;;16.47;28.85
8637;BME280;4356;49.068;8.658;2023-03-01T01:01:42;100765.63;;;16.26;28.66
8637;BME280;4356;49.068;8.658;2023-03-01T01:04:10;100782.63;;;16.35;28.74
8637;BME280;4356;49.068;8.658;2023-03-01T01:06:42;100781.97;;;16.33;28.77
8637;BME280;4356;49.068;8.658;2023-03-01T01:09:10;100784.69;;;16.33;28.85
8637;BME280;4356;49.068;8.658;2023-03-01T01:11:43;100787.41;;;16.33;28.84
8637;BME280;4356;49.068;8.658;2023-03-01T01:14:09;100793.94;;;16.38;28.68
8637;BME280;4356;49.068;8.658;2023-03-01T01:16:35;100793.66;;;16.33;29.16
8637;BME280;4356;49.068;8.658;2023-03-01T01:19:01;100790.09;;;16.33;29.01
8637;BME280;4356;49.068;8.658;2023-03-01T01:21:27;100788.44;;;16.32;28.74
8637;BME280;4356;49.068;8.658;2023-03-01T01:23:53;100784.88;;;16.31;28.83
8637;BME280;4356;49.068;8.658;2023-03-01T01:26:22;100774.41;;;16.28;28.95
8637;BME280;4356;49.068;8.658;2023-03-01T01:28:48;100770.00;;;16.27;29.05
8637;BME280;4356;49.068;8.658;2023-03-01T01:31:14;100745.56;;;16.13;29.17
8637;BME280;4356;49.068;8.658;2023-03-01T01:33:39;100744.44;;;16.07;29.01
8637;BME280;4356;49.068;8.658;2023-03-01T01:36:06;100773.28;;;16.23;29.22
8637;BME280;4356;49.068;8.658;2023-03-01T01:38:33;100746.97;;;16.09;29.23
8637;BME280;4356;49.068;8.658;2023-03-01T01:40:59;100753.16;;;16.17;29.10
8637;BME280;4356;49.068;8.658;2023-03-01T01:43:30;100756.06;;;16.16;29.12
8637;BME280;4356;49.068;8.658;2023-03-01T01:46:01;100745.97;;;16.10;29.26
8637;BME280;4356;49.068;8.658;2023-03-01T01:48:37;100748.09;;;16.14;29.11
8637;BME280;4356;49.068;8.658;2023-03-01T01:51:13;100738.84;;;16.09;29.21
8637;BME280;4356;49.068;8.658;2023-03-01T01:53:41;100743.91;;;16.12;29.31
8637;BME280;4356;49.068;8.658;2023-03-01T01:56:10;100741.38;;;16.10;29.20
8637;BME280;4356;49.068;8.658;2023-03-01T01:58:38;100739.88;;;16.08;29.45
8637;BME280;4356;49.068;8.658;2023-03-01T02:01:07;100731.75;;;16.08;29.56
8637;BME280;4356;49.068;8.658;2023-03-01T02:03:36;100709.84;;;15.95;29.24
8637;BME280;4356;49.068;8.658;2023-03-01T02:06:20;100710.50;;;15.97;29.15
8637;BME280;4356;49.068;8.658;2023-03-01T02:08:47;100724.00;;;16.05;29.20
8637;BME280;4356;49.068;8.658;2023-03-01T02:11:14;100702.28;;;15.90;29.26
8637;BME280;4356;49.068;8.658;2023-03-01T02:13:40;100711.72;;;15.94;29.50
8637;BME280;4356;49.068;8.658;2023-03-01T02:16:12;100713.50;;;16.02;29.27
8637;BME280;4356;49.068;8.658;2023-03-01T02:18:40;100710.69;;;15.95;29.31
8637;BME280;4356;49.068;8.658;2023-03-01T02:23:47;100703.56;;;15.94;29.25
8637;BME280;4356;49.068;8.658;2023-03-01T02:26:25;100698.34;;;15.93;29.18
8637;BME280;4356;49.068;8.658;2023-03-01T02:28:54;100696.50;;;15.93;29.20
8637;BME280;4356;49.068;8.658;2023-03-01T02:31:21;100690.41;;;15.91;29.37
8637;BME280;4356;49.068;8.658;2023-03-01T02:34:06;100686.22;;;15.89;29.25
8637;BME280;4356;49.068;8.658;2023-03-01T02:39:32;100676.78;;;15.85;29.11
8637;BME280;4356;49.068;8.658;2023-03-01T02:41:58;100656.75;;;15.71;29.40
8637;BME280;4356;49.068;8.658;2023-03-01T02:44:25;100682.19;;;15.85;29.53
8637;BME280;4356;49.068;8.658;2023-03-01T02:46:53;100650.66;;;15.69;29.66
8637;BME280;4356;49.068;8.658;2023-03-01T02:49:23;100689.66;;;15.83;29.40
8637;BME280;4356;49.068;8.658;2023-03-01T02:52:07;100681.72;;;15.81;29.63
8637;BME280;4356;49.068;8.658;2023-03-01T02:54:46;100679.34;;;15.78;29.43
8637;BME280;4356;49.068;8.658;2023-03-01T02:57:14;100679.56;;;15.77;29.57
8637;BME280;4356;49.068;8.658;2023-03-01T02:59:42;100655.81;;;15.64;29.45
8637;BME280;4356;49.068;8.658;2023-03-01T03:02:19;100682.06;;;15.78;29.25
8637;BME280;4356;49.068;8.658;2023-03-01T03:04:46;100661.03;;;15.66;29.48
8637;BME280;4356;49.068;8.658;2023-03-01T03:07:12;100673.28;;;15.76;29.28
8637;BME280;4356;49.068;8.658;2023-03-01T03:09:38;100643.00;;;15.58;29.63
8637;BME280;4356;49.068;8.658;2023-03-01T03:12:03;100657.66;;;15.64;29.55
8637;BME280;4356;49.068;8.658;2023-03-01T03:14:29;100672.00;;;15.72;29.67
8637;BME280;4356;49.068;8.658;2023-03-01T03:16:55;100659.75;;;15.62;29.57
8637;BME280;4356;49.068;8.658;2023-03-01T03:19:20;100666.75;;;15.71;29.47
8637;BME280;4356;49.068;8.658;2023-03-01T03:21:46;100633.38;;;15.56;29.62
8637;BME280;4356;49.068;8.658;2023-03-01T03:24:12;100621.59;;;15.49;29.71
8637;BME280;4356;49.068;8.658;2023-03-01T03:26:37;100655.44;;;15.67;29.93
8637;BME280;4356;49.068;8.658;2023-03-01T03:29:03;100618.63;;;15.43;29.75
8637;BME280;4356;49.068;8.658;2023-03-01T03:31:28;100660.84;;;15.67;29.91
8637;BME280;4356;49.068;8.658;2023-03-01T03:33:55;100657.31;;;15.67;29.80
8637;BME280;4356;49.068;8.658;2023-03-01T03:36:23;100666.47;;;15.66;29.79
8637;BME280;4356;49.068;8.658;2023-03-01T03:38:49;100639.00;;;15.54;29.57
8637;BME280;4356;49.068;8.658;2023-03-01T03:41:16;100647.22;;;15.61;29.70
8637;BME280;4356;49.068;8.658;2023-03-01T03:43:43;100647.41;;;15.59;29.79
8637;BME280;4356;49.068;8.658;2023-03-01T03:46:10;100643.50;;;15.62;29.78
8637;BME280;4356;49.068;8.658;2023-03-01T03:48:38;100650.78;;;15.61;29.70
8637;BME280;4356;49.068;8.658;2023-03-01T03:51:04;100619.09;;;15.47;29.67
8637;BME280;4356;49.068;8.658;2023-03-01T03:53:31;100645.53;;;15.60;29.61
8637;BME280;4356;49.068;8.658;2023-03-01T03:55:57;100622.94;;;15.53;29.75
8637;BME280;4356;49.068;8.658;2023-03-01T03:58:24;100615.06;;;15.43;29.41
8637;BME280;4356;49.068;8.658;2023-03-01T04:00:56;100631.53;;;15.56;29.59
8637;BME280;4356;49.068;8.658;2023-03-01T04:03:22;100627.97;;;15.56;29.49
8637;BME280;4356;49.068;8.658;2023-03-01T04:05:49;100627.97;;;15.56;29.26
8637;BME280;4356;49.068;8.658;2023-03-01T04:08:22;100627.13;;;15.55;29.63
8637;BME280;4356;49.068;8.658;2023-03-01T04:10:50;100623.28;;;15.50;29.53
8637;BME280;4356;49.068;8.658;2023-03-01T04:13:21;100629.16;;;15.53;29.57
8637;BME280;4356;49.068;8.658;2023-03-01T04:15:51;100632.25;;;15.50;29.68
8637;BME280;4356;49.068;8.658;2023-03-01T04:18:17;100629.34;;;15.52;29.81
8637;BME280;4356;49.068;8.658;2023-03-01T04:20:44;100630.19;;;15.52;29.95
8637;BME280;4356;49.068;8.658;2023-03-01T04:23:15;100607.44;;;15.38;29.41
8637;BME280;4356;49.068;8.658;2023-03-01T04:25:52;100608.47;;;15.37;29.42
8637;BME280;4356;49.068;8.658;2023-03-01T04:30:54;100611.50;;;15.42;29.65
8637;BME280;4356;49.068;8.658;2023-03-01T04:33:20;100588.47;;;15.24;29.75
8637;BME280;4356;49.068;8.658;2023-03-01T04:35:47;100592.50;;;15.28;29.47
8637;BME280;4356;49.068;8.658;2023-03-01T04:38:15;100611.19;;;15.37;29.47
8637;BME280;4356;49.068;8.658;2023-03-01T04:40:41;100604.91;;;15.37;29.29
8637;BME280;4356;49.068;8.658;2023-03-01T04:43:09;100601.94;;;15.32;29.83
8637;BME280;4356;49.068;8.658;2023-03-01T04:45:35;100600.91;;;15.33;29.92
8637;BME280;4356;49.068;8.658;2023-03-01T04:48:02;100608.28;;;15.39;29.37
8637;BME280;4356;49.068;8.658;2023-03-01T04:50:28;100613.91;;;15.37;29.78
8637;BME280;4356;49.068;8.658;2023-03-01T04:52:54;100618.09;;;15.40;29.76
8637;BME280;4356;49.068;8.658;2023-03-01T04:55:19;100616.59;;;15.37;29.97
8637;BME280;4356;49.068;8.658;2023-03-01T04:57:45;100627.25;;;15.39;29.92
8637;BME280;4356;49.068;8.658;2023-03-01T05:00:13;100612.97;;;15.30;30.03
8637;BME280;4356;49.068;8.658;2023-03-01T05:02:57;100616.84;;;15.28;29.40
8637;BME280;4356;49.068;8.658;2023-03-01T05:05:31;100626.13;;;15.33;29.92
8637;BME280;4356;49.068;8.658;2023-03-01T05:08:00;100636.75;;;15.35;29.72
8637;BME280;4356;49.068;8.658;2023-03-01T05:10:28;100627.31;;;15.31;29.46
8637;BME280;4356;49.068;8.658;2023-03-01T05:12:58;100609.47;;;15.22;29.49
8637;BME280;4356;49.068;8.658;2023-03-01T05:15:29;100627.50;;;15.29;29.78
8637;BME280;4356;49.068;8.658;2023-03-01T05:17:56;100626.69;;;15.29;29.69
8637;BME280;4356;49.068;8.658;2023-03-01T05:20:24;100635.44;;;15.31;29.56
8637;BME280;4356;49.068;8.658;2023-03-01T05:22:55;100633.59;;;15.31;30.05
8637;BME280;4356;49.068;8.658;2023-03-01T05:25:21;100619.09;;;15.24;29.73
8637;BME280;4356;49.068;8.658;2023-03-01T05:27:47;100604.31;;;15.12;30.04
8637;BME280;4356;49.068;8.658;2023-03-01T05:30:14;100624.50;;;15.24;29.65
8637;BME280;4356;49.068;8.658;2023-03-01T05:32:44;100619.94;;;15.25;29.70
8637;BME280;4356;49.068;8.658;2023-03-01T05:35:14;100612.16;;;15.22;29.85
8637;BME280;4356;49.068;8.658;2023-03-01T05:37:44;100606.00;;;15.13;29.92
8637;BME280;4356;49.068;8.658;2023-03-01T05:40:13;100607.84;;;15.13;29.82
8637;BME280;4356;49.068;8.658;2023-03-01T05:42:54;100613.41;;;15.19;29.52
8637;BME280;4356;49.068;8.658;2023-03-01T05:45:21;100612.91;;;15.16;29.67
8637;BME280;4356;49.068;8.658;2023-03-01T05:47:49;100616.09;;;15.19;29.93
8637;BME280;4356;49.068;8.658;2023-03-01T05:50:23;100612.00;;;15.23;30.06
8637;BME280;4356;49.068;8.658;2023-03-01T05:53:04;100611.34;;;15.21;29.37
8637;BME280;4356;49.068;8.658;2023-03-01T05:55:34;100599.72;;;15.13;29.88
8637;BME280;4356;49.068;8.658;2023-03-01T05:58:02;100613.03;;;15.22;29.87
8637;BME280;4356;49.068;8.658;2023-03-01T06:00:29;100598.44;;;15.09;29.74
8637;BME280;4356;49.068;8.658;2023-03-01T06:02:55;100613.03;;;15.22;29.46
8637;BME280;4356;49.068;8.658;2023-03-01T06:05:22;100620.94;;;15.24;29.41
8637;BME280;4356;49.068;8.658;2023-03-01T06:07:48;100610.31;;;15.22;29.84
8637;BME280;4356;49.068;8.658;2023-03-01T06:10:15;100620.59;;;15.27;29.58
8637;BME280;4356;49.068;8.658;2023-03-01T06:12:44;100590.78;;;15.12;29.52
8637;BME280;4356;49.068;8.658;2023-03-01T06:15:14;100617.16;;;15.33;29.59
8637;BME280;4356;49.068;8.658;2023-03-01T06:17:45;100611.25;;;15.29;29.74
8637;BME280;4356;49.068;8.658;2023-03-01T06:20:22;100610.72;;;15.34;29.34
8637;BME280;4356;49.068;8.658;2023-03-01T06:22:49;100586.13;;;15.21;29.53
8637;BME280;4356;49.068;8.658;2023-03-01T06:25:17;100586.41;;;15.26;29.41
8637;BME280;4356;49.068;8.658;2023-03-01T06:27:44;100625.63;;;15.53;29.57
8637;BME280;4356;49.068;8.658;2023-03-01T06:30:11;100620.84;;;15.55;29.40
8637;BME280;4356;49.068;8.658;2023-03-01T06:32:38;100627.41;;;15.60;29.40
8637;BME280;4356;49.068;8.658;2023-03-01T06:35:07;100632.47;;;15.63;29.11
8637;BME280;4356;49.068;8.658;2023-03-01T06:37:33;100614.16;;;15.65;29.40
8637;BME280;4356;49.068;8.658;2023-03-01T06:40:01;100623.94;;;15.66;29.27
8637;BME280;4356;49.068;8.658;2023-03-01T06:42:32;100602.19;;;15.60;29.45
8637;BME280;4356;49.068;8.658;2023-03-01T06:44:57;100617.59;;;15.74;29.11
8637;BME280;4356;49.068;8.658;2023-03-01T06:47:25;100614.69;;;15.75;29.53
8637;BME280;4356;49.068;8.658;2023-03-01T06:49:54;100609.94;;;15.77;29.42
8637;BME280;4356;49.068;8.658;2023-03-01T06:52:20;100612.47;;;15.79;29.58
8637;BME280;4356;49.068;8.658;2023-03-01T06:54:47;100594.06;;;15.74;29.34
8637;BME280;4356;49.068;8.658;2023-03-01T06:57:13;100590.38;;;15.82;29.52
8637;BME280;4356;49.068;8.658;2023-03-01T06:59:39;100595.81;;;15.96;29.41
8637;BME280;4356;49.068;8.658;2023-03-01T07:02:04;100600.19;;;16.12;29.45
8637;BME280;4356;49.068;8.658;2023-03-01T07:04:30;100593.88;;;16.26;29.30
8637;BME280;4356;49.068;8.658;2023-03-01T07:06:56;100586.47;;;16.34;29.29
8637;BME280;4356;49.068;8.658;2023-03-01T07:09:23;100573.00;;;16.41;29.04
8637;BME280;4356;49.068;8.658;2023-03-01T07:11:48;100592.03;;;16.62;28.87
8637;BME280;4356;49.068;8.658;2023-03-01T07:14:15;100570.31;;;16.62;28.77
8637;BME280;4356;49.068;8.658;2023-03-01T07:16:40;100579.91;;;16.79;28.42
8637;BME280;4356;49.068;8.658;2023-03-01T07:19:06;100587.56;;;16.97;28.78
8637;BME280;4356;49.068;8.658;2023-03-01T07:21:31;100566.28;;;17.00;28.47
8637;BME280;4356;49.068;8.658;2023-03-01T07:23:57;100584.44;;;17.21;28.66
8637;BME280;4356;49.068;8.658;2023-03-01T07:26:23;100590.56;;;17.29;28.55
8637;BME280;4356;49.068;8.658;2023-03-01T07:28:48;100562.53;;;17.29;28.14
8637;BME280;4356;49.068;8.658;2023-03-01T07:31:14;100588.84;;;17.50;28.32
8637;BME280;4356;49.068;8.658;2023-03-01T07:33:39;100553.25;;;17.44;28.00
8637;BME280;4356;49.068;8.658;2023-03-01T07:36:06;100561.72;;;17.56;28.15
8637;BME280;4356;49.068;8.658;2023-03-01T07:38:32;100582.94;;;17.74;27.94
8637;BME280;4356;49.068;8.658;2023-03-01T07:41:00;100577.34;;;17.82;28.00
8637;BME280;4356;49.068;8.658;2023-03-01T07:43:28;100580.72;;;17.90;27.67
8637;BME280;4356;49.068;8.658;2023-03-01T07:45:54;100562.53;;;17.91;27.98
8637;BME280;4356;49.068;8.658;2023-03-01T07:48:20;100559.00;;;17.97;27.99
8637;BME280;4356;49.068;8.658;2023-03-01T07:50:45;100566.59;;;18.08;27.63
8637;BME280;4356;49.068;8.658;2023-03-01T07:53:11;100572.47;;;18.18;27.57
8637;BME280;4356;49.068;8.658;2023-03-01T07:55:43;100553.66;;;18.16;27.74
8637;BME280;4356;49.068;8.658;2023-03-01T07:58:09;100552.19;;;18.20;27.82
8637;BME280;4356;49.068;8.658;2023-03-01T08:00:34;100566.47;;;18.35;27.60
8637;BME280;4356;49.068;8.658;2023-03-01T08:03:00;100567.72;;;18.39;27.38
8637;BME280;4356;49.068;8.658;2023-03-01T08:05:27;100553.50;;;18.37;27.44
8637;BME280;4356;49.068;8.658;2023-03-01T08:07:52;100565.94;;;18.53;27.47
8637;BME280;4356;49.068;8.658;2023-03-01T08:10:19;100539.50;;;18.40;27.52
8637;BME280;4356;49.068;8.658;2023-03-01T08:12:45;100538.03;;;18.44;27.54
8637;BME280;4356;49.068;8.658;2023-03-01T08:15:14;100546.03;;;18.59;27.56
8637;BME280;4356;49.068;8.658;2023-03-01T08:17:39;100539.13;;;18.57;27.62
8637;BME280;4356;49.068;8.658;2023-03-01T08:20:05;100551.72;;;18.64;27.37
8637;BME280;4356;49.068;8.658;2023-03-01T08:22:34;100562.84;;;18.82;27.44
8637;BME280;4356;49.068;8.658;2023-03-01T08:25:00;100534.94;;;18.74;27.47
8637;BME280;4356;49.068;8.658;2023-03-01T08:27:26;100530.97;;;18.83;27.36
8637;BME280;4356;49.068;8.658;2023-03-01T08:29:51;100536.03;;;18.86;27.25
8637;BME280;4356;49.068;8.658;2023-03-01T08:32:17;100532.44;;;18.92;27.10
8637;BME280;4356;49.068;8.658;2023-03-01T08:34:46;100542.91;;;19.08;27.18
8637;BME280;4356;49.068;8.658;2023-03-01T08:37:12;100552.53;;;19.17;27.30
8637;BME280;4356;49.068;8.658;2023-03-01T08:39:37;100539.56;;;19.19;27.13
8637;BME280;4356;49.068;8.658;2023-03-01T08:42:03;100515.88;;;19.06;27.23
8637;BME280;4356;49.068;8.658;2023-03-01T08:44:28;100547.97;;;19.24;27.08
8637;BME280;4356;49.068;8.658;2023-03-01T08:46:57;100549.81;;;19.30;26.90
8637;BME280;4356;49.068;8.658;2023-03-01T08:49:23;100545.44;;;19.35;27.02
8637;BME280;4356;49.068;8.658;2023-03-01T08:51:52;100530.56;;;19.38;27.17
8637;BME280;4356;49.068;8.658;2023-03-01T08:54:20;100529.50;;;19.45;27.06
8637;BME280;4356;49.068;8.658;2023-03-01T08:56:46;100518.38;;;19.47;27.18
8637;BME280;4356;49.068;8.658;2023-03-01T08:59:14;100526.06;;;19.70;27.19
8637;BME280;4356;49.068;8.658;2023-03-01T09:01:44;100523.50;;;19.81;26.95
8637;BME280;4356;49.068;8.658;2023-03-01T09:04:11;100514.66;;;19.92;26.96
8637;BME280;4356;49.068;8.658;2023-03-01T09:06:37;100527.97;;;20.13;26.71
8637;BME280;4356;49.068;8.658;2023-03-01T09:09:04;100518.28;;;20.24;26.50
8637;BME280;4356;49.068;8.658;2023-03-01T09:11:30;100505.66;;;20.29;26.44
8637;BME280;4356;49.068;8.658;2023-03-01T09:13:59;100485.47;;;20.37;26.39
8637;BME280;4356;49.068;8.658;2023-03-01T09:16:24;100510.88;;;20.69;26.18
8637;BME280;4356;49.068;8.658;2023-03-01T09:18:54;100522.31;;;20.84;26.24
8637;BME280;4356;49.068;8.658;2023-03-01T09:21:26;100527.88;;;20.95;26.14
8637;BME280;4356;49.068;8.658;2023-03-01T09:23:53;100506.50;;;20.92;25.94
8637;BME280;4356;49.068;8.658;2023-03-01T09:26:22;100515.56;;;21.11;25.69
8637;BME280;4356;49.068;8.658;2023-03-01T09:28:53;100504.66;;;21.11;25.87
8637;BME280;4356;49.068;8.658;2023-03-01T09:31:20;100527.63;;;21.28;25.74
8637;BME280;4356;49.068;8.658;2023-03-01T09:33:48;100506.66;;;21.22;25.43
8637;BME280;4356;49.068;8.658;2023-03-01T09:36:17;100519.97;;;21.36;25.62
8637;BME280;4356;49.068;8.658;2023-03-01T09:38:43;100500.06;;;21.29;25.37
8637;BME280;4356;49.068;8.658;2023-03-01T09:44:00;100493.19;;;21.45;25.02
8637;BME280;4356;49.068;8.658;2023-03-01T09:46:32;100500.44;;;21.51;25.31
8637;BME280;4356;49.068;8.658;2023-03-01T09:49:05;100493.72;;;21.54;25.25
8637;BME280;4356;49.068;8.658;2023-03-01T09:51:36;100507.28;;;21.60;25.27
8637;BME280;4356;49.068;8.658;2023-03-01T09:54:03;100494.47;;;21.61;24.92
8637;BME280;4356;49.068;8.658;2023-03-01T10:05:59;100483.06;;;21.82;24.86
8637;BME280;4356;49.068;8.658;2023-03-01T10:11:12;100472.06;;;21.88;24.98
8637;BME280;4356;49.068;8.658;2023-03-01T10:14:01;100462.16;;;21.87;24.94
8637;BME280;4356;49.068;8.658;2023-03-01T10:16:38;100473.41;;;21.97;24.69
8637;BME280;4356;49.068;8.658;2023-03-01T10:19:11;100467.94;;;21.97;24.49
8637;BME280;4356;49.068;8.658;2023-03-01T10:21:44;100460.91;;;22.01;23.98
8637;BME280;4356;49.068;8.658;2023-03-01T10:24:16;100461.06;;;22.06;24.31
8637;BME280;4356;49.068;8.658;2023-03-01T10:26:56;100460.13;;;22.12;23.93
8637;BME280;4356;49.068;8.658;2023-03-01T10:29:50;100455.38;;;22.19;23.74
8637;BME280;4356;49.068;8.658;2023-03-01T10:32:21;100451.38;;;22.22;23.88
8637;BME280;4356;49.068;8.658;2023-03-01T10:34:47;100445.34;;;22.31;23.79
8637;BME280;4356;49.068;8.658;2023-03-01T10:37:15;100445.22;;;22.38;23.30
8637;BME280;4356;49.068;8.658;2023-03-01T10:42:30;100445.25;;;22.49;23.40
8637;BME280;4356;49.068;8.658;2023-03-01T10:44:57;100432.97;;;22.52;23.14
8637;BME280;4356;49.068;8.658;2023-03-01T10:47:27;100435.66;;;22.59;22.76
8637;BME280;4356;49.068;8.658;2023-03-01T10:50:20;100428.16;;;22.66;22.90
8637;BME280;4356;49.068;8.658;2023-03-01T10:53:01;100433.50;;;22.72;22.75
8637;BME280;4356;49.068;8.658;2023-03-01T10:55:37;100427.34;;;22.77;22.72
8637;BME280;4356;49.068;8.658;2023-03-01T11:01:28;100410.53;;;22.85;22.70
8637;BME280;4356;49.068;8.658;2023-03-01T11:04:23;100407.94;;;22.90;22.80
8637;BME280;4356;49.068;8.658;2023-03-01T11:06:58;100399.09;;;22.88;22.62
8637;BME280;4356;49.068;8.658;2023-03-01T11:09:31;100386.94;;;22.84;22.71
8637;BME280;4356;49.068;8.658;2023-03-01T11:12:04;100382.41;;;22.89;22.73
8637;BME280;4356;49.068;8.658;2023-03-01T11:14:38;100391.00;;;22.93;22.98
8637;BME280;4356;49.068;8.658;2023-03-01T11:17:29;100398.72;;;23.07;22.37
8637;BME280;4356;49.068;8.658;2023-03-01T11:22:35;100385.13;;;23.12;22.78
8637;BME280;4356;49.068;8.658;2023-03-01T11:25:02;100377.50;;;23.14;22.40
8637;BME280;4356;49.068;8.658;2023-03-01T11:27:31;100355.56;;;23.03;22.42
8637;BME280;4356;49.068;8.658;2023-03-01T11:35:44;100362.34;;;23.23;22.29
8637;BME280;4356;49.068;8.658;2023-03-01T11:38:23;100347.19;;;23.21;22.03
8637;BME280;4356;49.068;8.658;2023-03-01T11:41:04;100343.88;;;23.19;22.15
8637;BME280;4356;49.068;8.658;2023-03-01T11:43:45;100353.38;;;23.39;22.20
8637;BME280;4356;49.068;8.658;2023-03-01T11:49:22;100345.50;;;23.43;22.05
8637;BME280;4356;49.068;8.658;2023-03-01T11:52:17;100345.38;;;23.50;21.77
8637;BME280;4356;49.068;8.658;2023-03-01T11:57:43;100341.88;;;23.54;22.05
8637;BME280;4356;49.068;8.658;2023-03-01T12:00:48;100332.34;;;23.57;21.64
8637;BME280;4356;49.068;8.658;2023-03-01T12:06:28;100318.72;;;23.62;21.98
8637;BME280;4356;49.068;8.658;2023-03-01T12:08:57;100324.53;;;23.65;22.00
8637;BME280;4356;49.068;8.658;2023-03-01T12:14:49;100312.59;;;23.71;21.75
8637;BME280;4356;49.068;8.658;2023-03-01T12:25:15;100294.41;;;23.82;21.86
8637;BME280;4356;49.068;8.658;2023-03-01T12:33:20;100288.72;;;23.88;21.36
8637;BME280;4356;49.068;8.658;2023-03-01T12:46:41;100268.03;;;23.97;21.96
8637;BME280;4356;49.068;8.658;2023-03-01T12:49:20;100260.38;;;23.99;21.88
8637;BME280;4356;49.068;8.658;2023-03-01T12:51:59;100238.72;;;23.86;21.73
8637;BME280;4356;49.068;8.658;2023-03-01T12:54:30;100251.28;;;23.99;21.71
8637;BME280;4356;49.068;8.658;2023-03-01T12:56:58;100253.84;;;24.00;21.60
8637;BME280;4356;49.068;8.658;2023-03-01T12:59:56;100245.25;;;23.97;21.59
8637;BME280;4356;49.068;8.658;2023-03-01T13:02:36;100247.88;;;23.92;22.02
8637;BME280;4356;49.068;8.658;2023-03-01T13:05:15;100239.06;;;23.90;22.21
8637;BME280;4356;49.068;8.658;2023-03-01T13:10:50;100228.59;;;23.70;21.80
8637;BME280;4356;49.068;8.658;2023-03-01T13:13:21;100226.94;;;23.69;22.00
8637;BME280;4356;49.068;8.658;2023-03-01T13:15:47;100239.47;;;23.65;22.51
8637;BME280;4356;49.068;8.658;2023-03-01T13:20:53;100227.25;;;23.56;22.29
8637;BME280;4356;49.068;8.658;2023-03-01T13:26:16;100220.25;;;23.48;22.12
8637;BME280;4356;49.068;8.658;2023-03-01T13:33:50;100202.09;;;23.31;22.93
8637;BME280;4356;49.068;8.658;2023-03-01T13:46:47;100179.50;;;23.12;22.84
8637;BME280;4356;49.068;8.658;2023-03-01T13:49:27;100193.88;;;23.19;22.63
8637;BME280;4356;49.068;8.658;2023-03-01T13:51:54;100180.34;;;23.13;22.89
8637;BME280;4356;49.068;8.658;2023-03-01T13:54:31;100183.44;;;23.16;22.43
8637;BME280;4356;49.068;8.658;2023-03-01T13:57:01;100189.63;;;23.12;22.58
8637;BME280;4356;49.068;8.658;2023-03-01T13:59:27;100182.50;;;23.11;22.67
8637;BME280;4356;49.068;8.658;2023-03-01T14:01:57;100177.50;;;23.08;24.01
8637;BME280;4356;49.068;8.658;2023-03-01T14:04:31;100171.44;;;23.06;24.07
8637;BME280;4356;49.068;8.658;2023-03-01T14:07:18;100181.56;;;23.05;23.53
8637;BME280;4356;49.068;8.658;2023-03-01T14:09:46;100161.28;;;22.90;24.29
8637;BME280;4356;49.068;8.658;2023-03-01T14:12:26;100190.03;;;23.04;24.18
8637;BME280;4356;49.068;8.658;2023-03-01T14:15:15;100182.78;;;22.98;23.38
8637;BME280;4356;49.068;8.658;2023-03-01T14:20:25;100184.16;;;22.84;22.55
8637;BME280;4356;49.068;8.658;2023-03-01T14:22:54;100164.19;;;22.72;22.34
8637;BME280;4356;49.068;8.658;2023-03-01T14:30:31;100175.50;;;22.75;22.37
8637;BME280;4356;49.068;8.658;2023-03-01T14:33:01;100157.28;;;22.69;21.65
8637;BME280;4356;49.068;8.658;2023-03-01T14:35:29;100160.53;;;22.66;21.60
8637;BME280;4356;49.068;8.658;2023-03-01T14:37:55;100166.00;;;22.66;22.28
8637;BME280;4356;49.068;8.658;2023-03-01T14:40:41;100172.53;;;22.65;22.49
8637;BME280;4356;49.068;8.658;2023-03-01T14:43:13;100166.81;;;22.67;22.16
8637;BME280;4356;49.068;8.658;2023-03-01T14:45:47;100158.16;;;22.58;22.13
8637;BME280;4356;49.068;8.658;2023-03-01T14:48:13;100147.31;;;22.52;22.46
8637;BME280;4356;49.068;8.658;2023-03-01T14:50:43;100156.84;;;22.61;22.25
8637;BME280;4356;49.068;8.658;2023-03-01T14:53:25;100151.69;;;22.52;22.03
8637;BME280;4356;49.068;8.658;2023-03-01T14:55:54;100154.69;;;22.51;22.27
8637;BME280;4356;49.068;8.658;2023-03-01T14:58:23;100159.91;;;22.52;22.44
8637;BME280;4356;49.068;8.658;2023-03-01T15:00:53;100175.66;;;22.57;22.45
8637;BME280;4356;49.068;8.658;2023-03-01T15:03:42;100180.91;;;22.59;22.54
8637;BME280;4356;49.068;8.658;2023-03-01T15:06:09;100189.13;;;22.59;22.72
8637;BME280;4356;49.068;8.658;2023-03-01T15:08:41;100185.53;;;22.58;22.55